createdAt,value
2024-02-24T00:01:19.512Z,55.05
2024-02-24T00:03:47.244Z,55.07
2024-02-24T00:06:14.827Z,55.08
2024-02-24T00:08:43.471Z,54.81
2024-02-24T00:11:11.441Z,54.58
2024-02-24T00:13:38.877Z,53.90
2024-02-24T00:16:06.601Z,55.00
2024-02-24T00:18:34.936Z,54.01
2024-02-24T00:21:02.363Z,54.39
2024-02-24T00:23:30.803Z,55.16
2024-02-24T00:25:58.542Z,55.08
2024-02-24T00:28:26.040Z,54.88
2024-02-24T00:30:53.557Z,54.80
2024-02-24T00:33:21.263Z,54.86
2024-02-24T00:35:48.740Z,54.55
2024-02-24T00:38:16.245Z,54.95
2024-02-24T00:40:44.118Z,55.07
2024-02-24T00:43:11.591Z,55.39
2024-02-24T00:45:39.170Z,55.17
2024-02-24T00:48:07.199Z,54.91
2024-02-24T00:50:34.657Z,55.30
2024-02-24T00:53:02.176Z,55.11
2024-02-24T00:55:30.008Z,54.91
2024-02-24T00:57:57.442Z,54.80
2024-02-24T01:00:24.884Z,54.55
2024-02-24T01:02:52.644Z,53.88
2024-02-24T01:05:20.329Z,53.12
2024-02-24T01:07:47.921Z,53.50
2024-02-24T01:10:15.806Z,54.33
2024-02-24T01:12:43.298Z,54.14
2024-02-24T01:15:11.350Z,53.92
2024-02-24T01:17:39.306Z,53.84
2024-02-24T01:20:07.540Z,52.97
2024-02-24T01:22:34.965Z,52.56
2024-02-24T01:25:02.724Z,53.12
2024-02-24T01:27:30.235Z,53.47
2024-02-24T01:29:57.632Z,53.05
2024-02-24T01:32:25.368Z,52.62
2024-02-24T01:34:52.828Z,52.93
2024-02-24T01:37:20.289Z,52.79
2024-02-24T01:39:48.048Z,52.21
2024-02-24T01:42:15.534Z,52.25
2024-02-24T01:44:43.059Z,51.93
2024-02-24T01:47:10.790Z,51.92
2024-02-24T01:49:39.340Z,52.25
2024-02-24T01:52:07.499Z,52.43
2024-02-24T01:54:36.303Z,52.02
2024-02-24T01:57:06.729Z,52.01
2024-02-24T01:59:34.560Z,51.91
2024-02-24T02:02:02.017Z,52.24
2024-02-24T02:04:29.766Z,52.08
2024-02-24T02:06:58.338Z,52.54
2024-02-24T02:09:26.839Z,52.55
2024-02-24T02:12:02.848Z,52.72
2024-02-24T02:14:31.352Z,52.79
2024-02-24T02:16:59.047Z,53.18
2024-02-24T02:19:26.466Z,53.22
2024-02-24T02:21:54.081Z,53.18
2024-02-24T02:24:21.797Z,53.36
2024-02-24T02:26:49.294Z,54.30
2024-02-24T02:29:16.897Z,54.46
2024-02-24T02:31:44.621Z,54.79
2024-02-24T02:34:12.109Z,54.71
2024-02-24T02:36:39.587Z,54.71
2024-02-24T02:39:07.258Z,55.39
2024-02-24T02:41:34.718Z,55.19
2024-02-24T02:44:02.156Z,55.48
2024-02-24T02:46:29.821Z,55.39
2024-02-24T02:48:57.450Z,55.40
2024-02-24T02:51:25.018Z,55.84
2024-02-24T02:53:52.917Z,56.70
2024-02-24T02:56:22.240Z,56.62
2024-02-24T02:58:49.778Z,56.75
2024-02-24T03:01:17.526Z,56.33
2024-02-24T03:03:44.972Z,56.76
2024-02-24T03:06:12.565Z,56.58
2024-02-24T03:08:40.544Z,56.83
2024-02-24T03:11:17.320Z,56.87
2024-02-24T03:13:45.489Z,56.74
2024-02-24T03:16:12.912Z,56.24
2024-02-24T03:18:41.795Z,56.85
2024-02-24T03:21:09.503Z,56.94
2024-02-24T03:23:37.099Z,57.57
2024-02-24T03:26:04.840Z,57.26
2024-02-24T03:28:32.638Z,57.36
2024-02-24T03:31:00.051Z,58.14
2024-02-24T03:33:27.706Z,58.45
2024-02-24T03:35:55.673Z,59.27
2024-02-24T03:38:23.177Z,59.86
2024-02-24T03:40:50.603Z,60.43
2024-02-24T03:43:18.313Z,61.17
2024-02-24T03:45:45.820Z,61.89
2024-02-24T03:48:13.507Z,62.30
2024-02-24T03:50:41.298Z,62.50
2024-02-24T03:53:08.714Z,62.90
2024-02-24T03:55:36.207Z,62.68
2024-02-24T03:58:03.982Z,62.88
2024-02-24T04:00:36.213Z,62.85
2024-02-24T04:03:04.598Z,63.23
2024-02-24T04:05:32.125Z,63.10
2024-02-24T04:08:00.143Z,64.23
2024-02-24T04:10:27.862Z,64.50
2024-02-24T04:12:55.314Z,63.75
2024-02-24T04:15:23.465Z,64.04
2024-02-24T04:17:51.335Z,64.28
2024-02-24T04:20:19.062Z,64.23
2024-02-24T04:22:46.643Z,64.68
2024-02-24T04:25:14.525Z,65.54
2024-02-24T04:27:41.904Z,65.61
2024-02-24T04:30:09.510Z,64.89
2024-02-24T04:32:37.391Z,64.85
2024-02-24T04:35:05.256Z,64.57
2024-02-24T04:37:32.776Z,64.91
2024-02-24T04:40:00.477Z,64.63
2024-02-24T04:42:27.876Z,64.78
2024-02-24T04:44:55.401Z,64.56
2024-02-24T04:47:24.708Z,64.02
2024-02-24T04:49:52.577Z,63.29
2024-02-24T04:52:20.628Z,63.20
2024-02-24T04:54:48.381Z,63.03
2024-02-24T04:57:15.847Z,62.71
2024-02-24T04:59:43.552Z,62.80
2024-02-24T05:02:11.451Z,62.52
2024-02-24T05:04:38.941Z,62.23
2024-02-24T05:07:06.494Z,62.11
2024-02-24T05:09:34.326Z,61.65
2024-02-24T05:12:01.950Z,62.07
2024-02-24T05:14:29.602Z,62.29
2024-02-24T05:16:57.432Z,61.92
2024-02-24T05:19:24.888Z,61.69
2024-02-24T05:21:52.430Z,61.87
2024-02-24T05:24:20.276Z,62.10
2024-02-24T05:26:47.931Z,62.53
2024-02-24T05:29:17.527Z,62.51
2024-02-24T05:31:45.346Z,62.69
2024-02-24T05:34:12.850Z,62.09
2024-02-24T05:36:41.860Z,62.58
2024-02-24T05:39:10.634Z,62.76
2024-02-24T05:41:38.229Z,62.31
2024-02-24T05:44:05.728Z,62.32
2024-02-24T05:46:33.378Z,62.17
2024-02-24T05:49:01.013Z,62.33
2024-02-24T05:51:28.749Z,62.30
2024-02-24T05:53:57.195Z,61.90
2024-02-24T05:56:24.625Z,61.79
2024-02-24T05:58:52.149Z,61.42
2024-02-24T06:01:19.970Z,61.66
2024-02-24T06:03:47.857Z,61.57
2024-02-24T06:06:15.577Z,61.52
2024-02-24T06:08:43.171Z,61.28
2024-02-24T06:11:11.159Z,61.17
2024-02-24T06:13:38.811Z,60.94
2024-02-24T06:16:07.974Z,60.94
2024-02-24T06:18:35.926Z,60.99
2024-02-24T06:21:03.570Z,61.53
2024-02-24T06:23:31.558Z,61.06
2024-02-24T06:25:59.436Z,61.05
2024-02-24T06:28:26.881Z,61.02
2024-02-24T06:30:54.320Z,61.00
2024-02-24T06:33:22.174Z,61.21
2024-02-24T06:35:49.854Z,60.97
2024-02-24T06:38:18.214Z,60.96
2024-02-24T06:40:46.812Z,61.17
2024-02-24T06:43:14.657Z,59.48
2024-02-24T06:45:42.339Z,59.82
2024-02-24T06:48:10.393Z,60.38
2024-02-24T06:50:38.056Z,60.15
2024-02-24T06:53:05.836Z,60.22
2024-02-24T06:55:33.594Z,60.14
2024-02-24T06:58:01.076Z,59.93
2024-02-24T07:00:28.959Z,59.68
2024-02-24T07:02:56.860Z,58.57
2024-02-24T07:05:24.533Z,59.19
2024-02-24T07:07:52.063Z,58.74
2024-02-24T07:10:19.768Z,58.64
2024-02-24T07:12:47.511Z,58.80
2024-02-24T07:15:14.966Z,58.32
2024-02-24T07:17:43.889Z,58.23
2024-02-24T07:20:12.182Z,57.74
2024-02-24T07:22:39.843Z,57.74
2024-02-24T07:25:07.610Z,57.03
2024-02-24T07:27:35.762Z,57.35
2024-02-24T07:30:03.198Z,57.13
2024-02-24T07:32:31.072Z,56.87
2024-02-24T07:34:59.926Z,56.58
2024-02-24T07:37:27.411Z,56.73
2024-02-24T07:39:55.156Z,56.67
2024-02-24T07:42:22.660Z,56.52
2024-02-24T07:44:50.218Z,55.55
2024-02-24T07:47:18.827Z,55.67
2024-02-24T07:49:46.766Z,55.69
2024-02-24T07:52:14.304Z,55.16
2024-02-24T07:54:42.080Z,54.67
2024-02-24T07:57:09.570Z,54.17
2024-02-24T07:59:36.977Z,54.22
2024-02-24T08:02:04.834Z,53.39
2024-02-24T08:04:32.536Z,53.39
2024-02-24T08:06:59.972Z,52.98
2024-02-24T08:09:27.441Z,52.72
2024-02-24T08:11:55.412Z,51.77
2024-02-24T08:14:22.980Z,51.75
2024-02-24T08:16:50.453Z,51.12
2024-02-24T08:19:18.388Z,51.29
2024-02-24T08:21:45.913Z,51.12
2024-02-24T08:24:17.607Z,51.13
2024-02-24T08:26:46.520Z,50.43
2024-02-24T08:29:14.047Z,50.97
2024-02-24T08:31:43.901Z,51.86
2024-02-24T08:34:12.211Z,51.34
2024-02-24T08:36:40.030Z,50.69
2024-02-24T08:39:07.727Z,50.53
2024-02-24T08:41:37.885Z,50.57
2024-02-24T08:44:05.857Z,50.08
2024-02-24T08:46:33.237Z,50.29
2024-02-24T08:49:01.027Z,50.95
2024-02-24T08:51:28.527Z,50.26
2024-02-24T08:53:56.050Z,49.98
2024-02-24T08:56:24.140Z,49.57
2024-02-24T08:58:51.654Z,49.19
2024-02-24T09:01:22.289Z,49.60
2024-02-24T09:03:50.160Z,48.97
2024-02-24T09:06:17.758Z,49.93
2024-02-24T09:08:45.374Z,49.25
2024-02-24T09:11:13.395Z,49.00
2024-02-24T09:13:40.906Z,48.95
2024-02-24T09:16:08.300Z,50.94
2024-02-24T09:18:36.100Z,50.50
2024-02-24T09:21:03.696Z,49.44
2024-02-24T09:23:31.185Z,48.13
2024-02-24T09:25:59.240Z,48.85
2024-02-24T09:28:26.694Z,48.43
2024-02-24T09:30:54.128Z,48.31
2024-02-24T09:33:22.107Z,47.80
2024-02-24T09:35:49.741Z,47.86
2024-02-24T09:38:17.405Z,46.72
2024-02-24T09:40:45.189Z,47.32
2024-02-24T09:43:13.172Z,46.80
2024-02-24T09:45:43.522Z,46.88
2024-02-24T09:48:12.013Z,46.04
2024-02-24T09:50:40.245Z,45.51
2024-02-24T09:53:08.385Z,44.67
2024-02-24T09:55:36.762Z,44.27
2024-02-24T09:58:04.533Z,44.84
2024-02-24T10:00:32.023Z,44.35
2024-02-24T10:02:59.766Z,44.65
2024-02-24T10:05:27.421Z,44.70
2024-02-24T10:07:56.724Z,45.00
2024-02-24T10:10:29.383Z,44.56
2024-02-24T10:12:57.783Z,46.27
2024-02-24T10:15:26.199Z,47.53
2024-02-24T10:18:03.371Z,46.09
2024-02-24T10:20:31.012Z,45.38
2024-02-24T10:22:59.228Z,47.23
2024-02-24T10:25:26.661Z,46.28
2024-02-24T10:27:54.031Z,45.64
2024-02-24T10:30:24.294Z,45.10
2024-02-24T10:32:54.053Z,44.37
2024-02-24T10:35:22.027Z,44.04
2024-02-24T10:38:03.920Z,43.58
2024-02-24T10:40:37.408Z,44.42
2024-02-24T10:43:05.763Z,44.21
2024-02-24T10:45:33.243Z,43.83
2024-02-24T10:48:01.248Z,43.46
2024-02-24T10:50:29.301Z,43.15
2024-02-24T10:52:56.815Z,43.19
2024-02-24T10:55:24.604Z,44.17
2024-02-24T10:57:52.988Z,42.84
2024-02-24T11:00:33.327Z,42.77
2024-02-24T11:03:01.545Z,42.77
2024-02-24T11:05:29.246Z,42.18
2024-02-24T11:07:56.865Z,42.41
2024-02-24T11:10:33.078Z,41.77
2024-02-24T11:13:01.884Z,41.33
2024-02-24T11:15:29.552Z,40.95
2024-02-24T11:17:59.004Z,39.86
2024-02-24T11:20:47.273Z,38.79
2024-02-24T11:23:30.607Z,38.59
2024-02-24T11:26:10.195Z,40.63
2024-02-24T11:28:38.408Z,38.97
2024-02-24T11:31:05.814Z,39.03
2024-02-24T11:33:38.763Z,38.91
2024-02-24T11:36:07.543Z,39.92
2024-02-24T11:38:35.303Z,39.85
2024-02-24T11:41:06.661Z,39.63
2024-02-24T11:43:34.869Z,39.01
2024-02-24T11:46:03.529Z,38.68
2024-02-24T11:48:32.266Z,38.73
2024-02-24T11:51:00.222Z,38.05
2024-02-24T11:53:27.683Z,40.13
2024-02-24T11:55:55.501Z,38.90
2024-02-24T11:58:23.312Z,39.73
2024-02-24T12:00:50.770Z,37.80
2024-02-24T12:03:18.500Z,38.09
2024-02-24T12:05:46.299Z,38.37
2024-02-24T12:08:19.595Z,38.47
2024-02-24T12:10:47.445Z,37.74
2024-02-24T12:13:15.225Z,38.43
2024-02-24T12:15:44.415Z,38.03
2024-02-24T12:18:12.653Z,37.78
2024-02-24T12:20:41.703Z,37.76
2024-02-24T12:23:10.163Z,37.87
2024-02-24T12:25:37.949Z,37.87
2024-02-24T12:28:05.933Z,37.92
2024-02-24T12:30:41.240Z,37.66
2024-02-24T12:33:17.983Z,37.60
2024-02-24T12:35:48.348Z,37.42
2024-02-24T12:38:18.541Z,37.26
2024-02-24T12:40:46.186Z,37.50
2024-02-24T12:43:13.791Z,36.12
2024-02-24T12:45:41.630Z,36.17
2024-02-24T12:48:09.627Z,35.51
2024-02-24T12:50:37.445Z,36.03
2024-02-24T12:53:06.364Z,35.04
2024-02-24T12:55:34.093Z,35.55
2024-02-24T12:58:01.723Z,34.39
2024-02-24T13:00:29.412Z,35.52
2024-02-24T13:03:00.300Z,34.95
2024-02-24T13:05:28.080Z,35.98
2024-02-24T13:07:56.013Z,35.47
2024-02-24T13:10:23.626Z,35.20
2024-02-24T13:12:51.136Z,34.72
2024-02-24T13:15:18.909Z,35.06
2024-02-24T13:17:46.405Z,35.64
2024-02-24T13:20:13.974Z,35.15
2024-02-24T13:22:42.549Z,35.15
2024-02-24T13:25:10.229Z,35.14
2024-02-24T13:27:38.005Z,35.50
2024-02-24T13:30:06.544Z,35.86
2024-02-24T13:32:34.304Z,35.44
2024-02-24T13:35:01.944Z,35.30
2024-02-24T13:37:29.738Z,37.36
2024-02-24T13:39:57.139Z,36.29
2024-02-24T13:42:24.530Z,36.32
2024-02-24T13:44:52.352Z,36.33
2024-02-24T13:47:19.851Z,36.19
2024-02-24T13:49:47.354Z,36.31
2024-02-24T13:52:15.078Z,36.38
2024-02-24T13:54:42.479Z,36.54
2024-02-24T13:57:09.913Z,36.74
2024-02-24T13:59:37.693Z,36.91
2024-02-24T14:02:05.190Z,36.35
2024-02-24T14:04:33.044Z,36.88
2024-02-24T14:07:00.563Z,36.76
2024-02-24T14:09:28.097Z,36.93
2024-02-24T14:11:56.162Z,36.78
2024-02-24T14:14:23.742Z,36.79
2024-02-24T14:16:51.173Z,37.07
2024-02-24T14:19:22.631Z,37.33
2024-02-24T14:21:51.916Z,36.65
2024-02-24T14:24:19.709Z,37.42
2024-02-24T14:26:47.242Z,37.42
2024-02-24T14:29:14.768Z,37.06
2024-02-24T14:31:42.552Z,37.22
2024-02-24T14:34:10.153Z,39.30
2024-02-24T14:36:37.644Z,38.15
2024-02-24T14:39:06.755Z,37.97
2024-02-24T14:41:34.280Z,37.65
2024-02-24T14:44:01.894Z,38.00
2024-02-24T14:46:29.620Z,37.83
2024-02-24T14:48:57.231Z,38.22
2024-02-24T14:51:24.761Z,38.02
2024-02-24T14:53:52.872Z,38.23
2024-02-24T14:56:20.602Z,38.12
2024-02-24T14:58:48.093Z,38.90
2024-02-24T15:01:16.145Z,38.86
2024-02-24T15:03:45.867Z,38.68
2024-02-24T15:06:15.743Z,38.81
2024-02-24T15:08:43.735Z,39.07
2024-02-24T15:11:11.230Z,39.08
2024-02-24T15:13:38.843Z,39.20
2024-02-24T15:16:08.321Z,39.27
2024-02-24T15:18:36.218Z,39.61
2024-02-24T15:21:03.814Z,40.28
2024-02-24T15:23:31.813Z,41.16
2024-02-24T15:25:59.311Z,42.22
2024-02-24T15:28:27.145Z,42.45
2024-02-24T15:30:54.959Z,42.12
2024-02-24T15:33:23.191Z,42.68
2024-02-24T15:35:50.763Z,42.78
2024-02-24T15:38:18.492Z,43.75
2024-02-24T15:40:45.975Z,44.22
2024-02-24T15:43:13.421Z,44.35
2024-02-24T15:45:41.149Z,44.87
2024-02-24T15:48:08.834Z,45.33
2024-02-24T15:50:36.422Z,45.88
2024-02-24T15:53:04.245Z,46.58
2024-02-24T15:55:31.763Z,46.91
2024-02-24T15:58:01.128Z,47.32
2024-02-24T16:00:29.024Z,47.91
2024-02-24T16:02:57.035Z,49.00
2024-02-24T16:05:24.734Z,49.17
2024-02-24T16:07:52.205Z,49.54
2024-02-24T16:10:19.940Z,49.02
2024-02-24T16:12:48.759Z,49.81
2024-02-24T16:15:16.280Z,49.21
2024-02-24T16:17:44.063Z,48.78
2024-02-24T16:20:11.909Z,48.44
2024-02-24T16:22:40.831Z,48.14
2024-02-24T16:25:08.845Z,47.67
2024-02-24T16:27:36.250Z,47.86
2024-02-24T16:30:04.103Z,48.10
2024-02-24T16:32:32.011Z,48.65
2024-02-24T16:34:59.584Z,48.75
2024-02-24T16:37:27.018Z,49.15
2024-02-24T16:39:57.711Z,49.78
2024-02-24T16:42:25.147Z,49.93
2024-02-24T16:44:52.669Z,49.77
2024-02-24T16:47:20.443Z,49.80
2024-02-24T16:49:47.984Z,50.79
2024-02-24T16:52:15.383Z,50.98
2024-02-24T16:54:43.027Z,50.87
2024-02-24T16:57:10.630Z,51.06
2024-02-24T16:59:39.764Z,51.14
2024-02-24T17:02:08.268Z,51.56
2024-02-24T17:04:37.298Z,51.99
2024-02-24T17:07:07.088Z,51.88
2024-02-24T17:09:34.971Z,53.11
2024-02-24T17:12:04.068Z,52.66
2024-02-24T17:14:31.779Z,53.15
2024-02-24T17:16:59.442Z,52.52
2024-02-24T17:19:27.326Z,52.99
2024-02-24T17:21:54.863Z,52.75
2024-02-24T17:24:22.532Z,52.67
2024-02-24T17:26:50.929Z,53.00
2024-02-24T17:29:18.394Z,53.51
2024-02-24T17:31:46.123Z,53.54
2024-02-24T17:34:14.998Z,53.49
2024-02-24T17:36:46.942Z,53.53
2024-02-24T17:39:14.675Z,53.89
2024-02-24T17:41:42.346Z,53.86
2024-02-24T17:44:10.751Z,53.68
2024-02-24T17:46:39.312Z,53.92
2024-02-24T17:49:07.802Z,54.18
2024-02-24T17:51:35.376Z,54.29
2024-02-24T17:54:03.271Z,54.30
2024-02-24T17:56:33.752Z,55.17
2024-02-24T17:59:01.296Z,55.17
2024-02-24T18:01:28.977Z,55.30
2024-02-24T18:03:57.060Z,55.22
2024-02-24T18:06:24.824Z,55.59
2024-02-24T18:08:52.406Z,55.27
2024-02-24T18:11:21.101Z,55.43
2024-02-24T18:13:48.608Z,55.25
2024-02-24T18:16:16.160Z,55.40
2024-02-24T18:18:45.534Z,55.61
2024-02-24T18:21:18.304Z,55.70
2024-02-24T18:23:46.289Z,55.55
2024-02-24T18:26:13.835Z,55.42
2024-02-24T18:28:44.490Z,55.64
2024-02-24T18:31:12.337Z,55.29
2024-02-24T18:33:39.956Z,55.11
2024-02-24T18:36:07.820Z,55.50
2024-02-24T18:38:35.562Z,55.19
2024-02-24T18:41:03.148Z,55.01
2024-02-24T18:43:31.251Z,55.07
2024-02-24T18:45:59.217Z,54.70
2024-02-24T18:48:27.884Z,55.25
2024-02-24T18:50:56.268Z,55.90
2024-02-24T18:53:24.585Z,55.25
2024-02-24T18:55:52.076Z,55.51
2024-02-24T18:58:19.507Z,55.49
2024-02-24T19:00:47.539Z,55.83
2024-02-24T19:03:15.450Z,55.91
2024-02-24T19:05:43.469Z,56.13
2024-02-24T19:08:11.228Z,56.25
2024-02-24T19:10:39.266Z,56.58
2024-02-24T19:13:06.935Z,56.35
2024-02-24T19:15:36.024Z,56.27
2024-02-24T19:18:05.050Z,56.25
2024-02-24T19:20:32.869Z,56.59
2024-02-24T19:23:00.792Z,57.20
2024-02-24T19:25:28.233Z,56.91
2024-02-24T19:27:55.801Z,57.17
2024-02-24T19:30:26.105Z,57.58
2024-02-24T19:32:54.080Z,58.08
2024-02-24T19:35:21.776Z,57.72
2024-02-24T19:37:49.692Z,58.58
2024-02-24T19:40:19.536Z,58.77
2024-02-24T19:42:47.069Z,58.53
2024-02-24T19:45:15.058Z,58.05
2024-02-24T19:47:43.037Z,57.76
2024-02-24T19:50:10.893Z,57.68
2024-02-24T19:52:38.693Z,58.01
2024-02-24T19:55:07.233Z,58.23
2024-02-24T19:57:34.821Z,58.65
2024-02-24T20:00:05.193Z,57.75
2024-02-24T20:02:41.244Z,57.75
2024-02-24T20:05:09.731Z,58.48
2024-02-24T20:07:42.590Z,59.13
2024-02-24T20:10:10.113Z,58.78
2024-02-24T20:12:37.442Z,58.46
2024-02-24T20:15:04.916Z,58.24
2024-02-24T20:17:32.628Z,57.86
2024-02-24T20:20:00.529Z,58.02
2024-02-24T20:22:27.902Z,59.03
2024-02-24T20:24:55.372Z,58.94
2024-02-24T20:27:22.641Z,59.52
2024-02-24T20:29:50.233Z,59.46
2024-02-24T20:32:20.092Z,59.70
2024-02-24T20:34:47.413Z,58.82
2024-02-24T20:37:14.716Z,58.72
2024-02-24T20:39:41.994Z,59.41
2024-02-24T20:42:09.334Z,59.84
2024-02-24T20:44:36.689Z,60.34
2024-02-24T20:47:04.293Z,60.28
2024-02-24T20:49:31.666Z,60.81
2024-02-24T20:52:00.535Z,59.96
2024-02-24T20:54:29.953Z,59.53
2024-02-24T20:56:57.942Z,60.32
2024-02-24T20:59:25.445Z,60.53
2024-02-24T21:01:52.846Z,60.11
2024-02-24T21:04:20.206Z,59.72
2024-02-24T21:06:47.580Z,60.81
2024-02-24T21:09:15.092Z,61.11
2024-02-24T21:11:42.435Z,61.70
2024-02-24T21:14:11.458Z,60.61
2024-02-24T21:16:39.725Z,60.40
2024-02-24T21:19:08.676Z,59.72
2024-02-24T21:21:36.402Z,60.92
2024-02-24T21:24:03.993Z,60.20
2024-02-24T21:26:31.483Z,59.83
2024-02-24T21:28:58.910Z,59.55
2024-02-24T21:31:26.250Z,59.42
2024-02-24T21:33:53.756Z,59.71
2024-02-24T21:36:21.140Z,59.80
2024-02-24T21:38:48.737Z,59.78
2024-02-24T21:41:19.312Z,59.31
2024-02-24T21:43:46.795Z,60.46
2024-02-24T21:46:14.175Z,60.72
2024-02-24T21:48:41.602Z,60.97
2024-02-24T21:51:09.174Z,61.25
2024-02-24T21:53:36.527Z,61.45
2024-02-24T21:56:04.743Z,60.77
2024-02-24T21:58:32.365Z,59.99
2024-02-24T22:00:59.775Z,60.30
2024-02-24T22:03:27.943Z,60.37
2024-02-24T22:05:55.631Z,60.49
2024-02-24T22:08:23.270Z,61.38
2024-02-24T22:10:51.142Z,61.13
2024-02-24T22:13:19.647Z,61.39
2024-02-24T22:15:47.761Z,61.47
2024-02-24T22:18:15.668Z,62.04
2024-02-24T22:20:43.339Z,60.84
2024-02-24T22:23:10.895Z,60.13
2024-02-24T22:25:38.601Z,61.40
2024-02-24T22:28:06.404Z,60.75
2024-02-24T22:30:35.594Z,60.68
2024-02-24T22:33:03.561Z,60.97
2024-02-24T22:35:31.126Z,60.37
2024-02-24T22:37:59.172Z,60.96
2024-02-24T22:40:26.981Z,60.04
2024-02-24T22:42:54.382Z,60.80
2024-02-24T22:45:21.895Z,60.58
2024-02-24T22:47:49.796Z,60.39
2024-02-24T22:50:17.409Z,60.18
2024-02-24T22:52:44.801Z,60.56
2024-02-24T22:55:12.760Z,60.73
2024-02-24T22:57:40.387Z,60.36
2024-02-24T23:00:10.040Z,60.27
2024-02-24T23:02:37.891Z,60.36
2024-02-24T23:05:05.737Z,60.78
2024-02-24T23:07:33.124Z,60.27
2024-02-24T23:10:00.798Z,60.54
2024-02-24T23:12:28.326Z,59.99
2024-02-24T23:14:55.933Z,60.72
2024-02-24T23:17:24.483Z,61.03
2024-02-24T23:19:52.072Z,60.48
2024-02-24T23:22:19.559Z,61.02
2024-02-24T23:24:47.279Z,61.44
2024-02-24T23:27:15.102Z,60.51
2024-02-24T23:29:42.776Z,59.34
2024-02-24T23:32:11.229Z,60.05
2024-02-24T23:34:38.766Z,59.64
2024-02-24T23:37:06.234Z,59.91
2024-02-24T23:39:33.982Z,60.25
2024-02-24T23:42:01.481Z,59.75
2024-02-24T23:44:29.072Z,59.63
2024-02-24T23:46:56.784Z,59.37
2024-02-24T23:49:24.338Z,58.72
2024-02-24T23:51:53.333Z,61.14
2024-02-24T23:54:21.014Z,60.84
2024-02-24T23:56:48.489Z,60.42
2024-02-24T23:59:16.022Z,60.57
